Time;durP1;ratioP1;P1;durP2;ratioP2;P2;SDS_P1;SDS_P2;PMS_P1;PMS_P2;Temp;Humidity;BMP_temperature;BMP_pressure;BME280_temperature;BME280_humidity;BME280_pressure;Samples;Min_cycle;Max_cycle;Signal;HPM_P1;HPM_P2
2022/12/31 00:00:20;;;;;;;3.55;2.10;;;;;;;12.05;100.00;100167.88;5089442;28;20048;-49
2022/12/31 00:02:48;;;;;;;3.05;1.80;;;;;;;12.01;100.00;100178.59;5094156;28;20494;-47
2022/12/31 00:05:16;;;;;;;2.72;1.75;;;;;;;11.99;100.00;100171.81;5094504;28;20093;-47
2022/12/31 00:07:43;;;;;;;3.00;1.90;;;;;;;11.97;100.00;100184.94;5094414;28;20044;-50
2022/12/31 00:10:11;;;;;;;2.78;2.10;;;;;;;11.96;100.00;100180.59;5092565;28;20490;-47
2022/12/31 00:12:39;;;;;;;2.95;1.83;;;;;;;11.93;100.00;100169.16;5094659;28;20050;-49
2022/12/31 00:15:07;;;;;;;2.33;1.52;;;;;;;11.89;100.00;100178.22;5094529;28;20044;-50
2022/12/31 00:17:34;;;;;;;2.80;1.25;;;;;;;11.90;100.00;100180.63;5093916;28;20040;-49
2022/12/31 00:20:02;;;;;;;3.90;1.75;;;;;;;11.95;100.00;100182.47;5093309;28;20115;-49
2022/12/31 00:22:30;;;;;;;2.78;1.50;;;;;;;11.98;100.00;100181.06;5093501;28;20554;-49
2022/12/31 00:24:57;;;;;;;3.90;1.70;;;;;;;11.97;100.00;100179.47;5094574;28;20409;-48
2022/12/31 00:27:28;;;;;;;4.15;2.58;;;;;;;11.98;100.00;100181.91;5094083;28;20432;-50
2022/12/31 00:29:56;;;;;;;2.25;1.77;;;;;;;11.96;100.00;100180.59;5092956;28;20492;-49
2022/12/31 00:32:31;;;;;;;4.10;1.50;;;;;;;11.92;100.00;100177.63;5095744;28;20047;-49
2022/12/31 00:34:58;;;;;;;1.13;1.10;;;;;;;11.92;100.00;100183.06;5094910;28;20551;-50
2022/12/31 00:37:26;;;;;;;3.80;1.75;;;;;;;11.90;100.00;100185.28;5094750;28;20047;-48
2022/12/31 00:39:53;;;;;;;2.08;1.48;;;;;;;11.94;100.00;100178.94;5092500;28;20583;-54
2022/12/31 00:42:21;;;;;;;2.42;1.50;;;;;;;11.94;100.00;100167.22;5093211;28;20059;-49
2022/12/31 00:44:49;;;;;;;2.22;1.67;;;;;;;11.94;100.00;100153.56;5094361;28;20379;-48
2022/12/31 00:47:16;;;;;;;2.05;1.20;;;;;;;11.93;100.00;100160.94;5093665;28;20039;-50
2022/12/31 00:49:44;;;;;;;1.48;1.38;;;;;;;11.92;100.00;100172.16;5083606;28;20059;-50
2022/12/31 00:52:14;;;;;;;2.05;1.17;;;;;;;11.89;100.00;100167.28;5092895;28;20050;-50
2022/12/31 00:54:42;;;;;;;2.80;1.90;;;;;;;11.87;100.00;100172.22;5093280;28;20036;-47
2022/12/31 00:57:09;;;;;;;2.25;1.70;;;;;;;11.87;100.00;100164.03;5092611;28;20093;-48
2022/12/31 00:59:37;;;;;;;2.10;1.38;;;;;;;11.86;100.00;100167.84;5093359;28;20106;-49
2022/12/31 01:02:05;;;;;;;2.13;1.30;;;;;;;11.87;100.00;100153.91;5093587;28;20044;-49
2022/12/31 01:04:33;;;;;;;2.22;1.38;;;;;;;11.94;100.00;100169.94;5093607;28;20042;-49
2022/12/31 01:07:00;;;;;;;1.92;1.52;;;;;;;11.90;100.00;100168.91;5091345;28;20101;-51
2022/12/31 01:09:28;;;;;;;2.35;1.40;;;;;;;11.90;100.00;100175.16;5090111;28;20433;-50
2022/12/31 01:11:55;;;;;;;2.65;1.30;;;;;;;11.87;100.00;100164.84;5082166;28;20409;-52
2022/12/31 01:14:23;;;;;;;2.97;1.30;;;;;;;11.86;100.00;100151.47;5094438;28;20117;-49
2022/12/31 01:16:52;;;;;;;1.40;1.13;;;;;;;11.84;100.00;100159.94;5091135;28;20506;-46
2022/12/31 01:19:22;;;;;;;1.65;1.20;;;;;;;11.85;100.00;100161.56;5091727;28;20040;-45
2022/12/31 01:21:51;;;;;;;1.83;1.13;;;;;;;11.88;100.00;100146.53;5093039;28;20044;-47
2022/12/31 01:24:19;;;;;;;1.52;1.42;;;;;;;11.87;100.00;100137.53;5093526;28;20044;-46
2022/12/31 01:26:50;;;;;;;1.55;1.13;;;;;;;11.90;100.00;100126.03;5093620;28;20043;-46
2022/12/31 01:29:18;;;;;;;1.20;1.10;;;;;;;11.92;100.00;100139.41;5071657;28;20052;-49
2022/12/31 01:31:45;;;;;;;1.50;1.40;;;;;;;11.91;100.00;100149.50;5093451;28;20044;-45
2022/12/31 01:34:13;;;;;;;2.55;1.25;;;;;;;11.89;100.00;100148.19;5093238;28;20044;-49
2022/12/31 01:36:41;;;;;;;1.40;1.00;;;;;;;11.89;100.00;100154.44;5093148;28;20409;-48
2022/12/31 01:39:09;;;;;;;4.05;2.80;;;;;;;11.88;100.00;100143.81;5092864;28;20089;-48
2022/12/31 01:41:41;;;;;;;2.25;1.85;;;;;;;11.89;100.00;100157.16;5090947;28;20040;-50
2022/12/31 01:44:11;;;;;;;1.75;1.20;;;;;;;11.88;100.00;100154.72;5093520;28;20055;-48
2022/12/31 01:46:46;;;;;;;2.72;1.52;;;;;;;11.87;100.00;100172.22;5092705;28;20073;-48
2022/12/31 01:49:43;;;;;;;2.78;2.03;;;;;;;11.83;100.00;100169.22;5088317;28;20040;-48
2022/12/31 01:52:39;;;;;;;2.03;1.65;;;;;;;11.85;100.00;100161.56;5078827;28;20047;-49
2022/12/31 01:55:44;;;;;;;3.60;1.27;;;;;;;11.84;100.00;100168.13;5093021;28;20058;-49
2022/12/31 01:58:40;;;;;;;4.07;1.55;;;;;;;11.84;100.00;100179.03;5092955;28;20059;-49
2022/12/31 02:01:08;;;;;;;;;;;;;;;11.83;100.00;100192.97;5078523;28;20410;-49
2022/12/31 02:03:36;;;;;;;1.20;0.90;;;;;;;11.83;100.00;100212.91;5077534;28;19970;-49
2022/12/31 02:06:26;;;;;;;2.55;1.30;;;;;;;11.83;100.00;100256.56;5093055;28;20047;-49
2022/12/31 02:08:55;;;;;;;1.17;0.85;;;;;;;11.84;100.00;100288.22;5091460;28;20040;-49
2022/12/31 02:11:26;;;;;;;1.13;0.90;;;;;;;11.80;100.00;100272.72;5091255;28;20044;-49
2022/12/31 02:13:55;;;;;;;0.73;0.73;;;;;;;11.71;100.00;100194.22;5091933;28;20117;-50
2022/12/31 02:16:36;;;;;;;1.88;0.75;;;;;;;11.66;100.00;100186.06;5092754;28;20048;-48
2022/12/31 02:19:07;;;;;;;2.35;0.80;;;;;;;11.63;100.00;100188.59;5092691;28;20047;-50
2022/12/31 02:21:45;;;;;;;0.60;0.60;;;;;;;11.62;100.00;100185.06;5092057;28;20170;-49
2022/12/31 02:25:02;;;;;;;0.60;0.60;;;;;;;11.59;100.00;100199.25;5092692;28;20044;-49
2022/12/31 02:28:15;;;;;;;0.98;0.70;;;;;;;11.57;100.00;100215.13;5049732;28;20044;-49
2022/12/31 02:30:45;;;;;;;1.98;0.82;;;;;;;11.58;100.00;100226.84;5062497;28;20056;-47
2022/12/31 02:33:32;;;;;;;1.35;0.82;;;;;;;11.57;100.00;100230.66;5092804;28;20109;-49
2022/12/31 02:36:08;;;;;;;1.75;0.60;;;;;;;11.57;100.00;100206.94;5090877;28;20036;-51
2022/12/31 02:38:40;;;;;;;1.13;0.70;;;;;;;11.57;100.00;100226.03;5092676;28;20127;-49
2022/12/31 02:41:48;;;;;;;0.95;0.60;;;;;;;11.58;100.00;100226.84;5091307;28;20574;-49
2022/12/31 02:44:00;;;;;;;0.52;0.52;;;;;;;11.59;100.00;100228.47;5092888;28;20045;-52
2022/12/31 02:46:40;;;;;;;0.70;0.70;;;;;;;11.58;100.00;100229.56;5092201;28;20062;-49
2022/12/31 02:49:47;;;;;;;1.02;0.95;;;;;;;11.58;100.00;100216.75;5108259;28;20556;-51
2022/12/31 02:52:27;;;;;;;2.03;1.17;;;;;;;11.59;100.00;100233.91;5094939;28;20048;-51
2022/12/31 02:55:18;;;;;;;1.00;1.00;;;;;;;11.59;100.00;100228.47;5094806;28;20036;-50
2022/12/31 02:57:58;;;;;;;2.33;1.10;;;;;;;11.59;100.00;100223.00;5077966;28;20040;-49
2022/12/31 03:03:12;;;;;;;1.35;1.23;;;;;;;11.59;100.00;100223.81;5096268;28;20036;-48
2022/12/31 03:05:42;;;;;;;1.10;1.00;;;;;;;11.59;100.00;100217.53;5095665;28;20059;-50
2022/12/31 03:08:09;;;;;;;1.38;0.80;;;;;;;11.59;100.00;100228.47;5094443;28;20059;-50
2022/12/31 03:10:38;;;;;;;1.15;0.90;;;;;;;11.59;100.00;100223.81;5096124;28;20051;-50
2022/12/31 03:13:05;;;;;;;0.98;0.85;;;;;;;11.60;100.00;100216.47;5096357;28;20044;-50
2022/12/31 03:15:34;;;;;;;1.30;1.20;;;;;;;11.61;100.00;100209.88;5095607;28;20432;-45
2022/12/31 03:18:11;;;;;;;0.77;0.77;;;;;;;11.59;100.00;100212.09;5095531;28;20395;-48
2022/12/31 03:23:38;;;;;;;0.65;0.65;;;;;;;11.59;100.00;100206.63;5095853;28;20043;-50
2022/12/31 03:26:10;;;;;;;0.77;0.70;;;;;;;11.59;100.00;100201.16;5095568;28;20055;-49
2022/12/31 03:28:46;;;;;;;0.90;0.73;;;;;;;11.58;100.00;100205.00;5094608;28;20036;-49
2022/12/31 03:31:15;;;;;;;0.93;0.88;;;;;;;11.57;100.00;100201.47;5078196;28;20036;-48
2022/12/31 03:33:42;;;;;;;2.30;1.42;;;;;;;11.57;100.00;100178.81;5095712;28;20525;-49
2022/12/31 03:36:13;;;;;;;2.35;0.88;;;;;;;11.57;100.00;100197.91;5095270;28;20043;-45
2022/12/31 03:38:41;;;;;;;1.88;1.20;;;;;;;11.57;100.00;100208.81;5093977;28;20044;-49
2022/12/31 03:41:10;;;;;;;1.38;1.20;;;;;;;11.57;100.00;100173.34;5095383;28;20149;-49
2022/12/31 03:43:38;;;;;;;2.10;1.20;;;;;;;11.56;100.00;100179.94;5095049;28;20075;-49
2022/12/31 03:46:05;;;;;;;2.10;1.20;;;;;;;11.57;100.00;100181.53;5094368;28;20524;-46
2022/12/31 03:48:33;;;;;;;2.83;1.40;;;;;;;11.56;100.00;100179.94;5095166;28;20117;-48
2022/12/31 03:51:03;;;;;;;2.63;1.52;;;;;;;11.56;100.00;100190.84;5095418;28;20131;-46
2022/12/31 03:53:31;;;;;;;1.40;1.30;;;;;;;11.56;100.00;100179.94;5095011;28;20040;-49
2022/12/31 03:55:58;;;;;;;2.15;1.30;;;;;;;11.56;100.00;100175.28;5093367;28;20086;-49
2022/12/31 03:58:26;;;;;;;2.92;1.45;;;;;;;11.55;100.00;100181.84;5095176;28;20052;-48
2022/12/31 04:00:54;;;;;;;1.38;1.20;;;;;;;11.56;100.00;100179.94;5094133;28;20040;-49
2022/12/31 04:03:21;;;;;;;2.75;1.58;;;;;;;11.57;100.00;100189.72;5092819;28;20043;-45
2022/12/31 04:05:54;;;;;;;2.55;1.60;;;;;;;11.56;100.00;100179.94;5094882;28;20036;-48
2022/12/31 04:08:22;;;;;;;5.03;1.90;;;;;;;11.56;100.00;100178.00;5093719;28;20044;-50
2022/12/31 04:10:49;;;;;;;2.10;1.20;;;;;;;11.56;100.00;100186.19;5110754;28;20417;-48
2022/12/31 04:13:17;;;;;;;0.85;0.85;;;;;;;11.55;100.00;100179.13;5094670;28;20041;-48
2022/12/31 04:15:49;;;;;;;1.42;1.33;;;;;;;11.56;100.00;100191.66;5095072;28;20048;-46
2022/12/31 04:18:17;;;;;;;1.48;1.35;;;;;;;11.56;100.00;100201.75;5094178;28;20051;-52
2022/12/31 04:20:44;;;;;;;2.35;1.30;;;;;;;11.55;100.00;100202.88;5095300;28;20036;-49
2022/12/31 04:23:12;;;;;;;1.15;1.05;;;;;;;11.54;100.00;100195.78;5094757;28;20044;-49
2022/12/31 04:25:40;;;;;;;1.60;1.17;;;;;;;11.50;100.00;100187.38;5093906;28;20044;-50
2022/12/31 04:28:10;;;;;;;1.08;1.00;;;;;;;11.47;100.00;100194.22;5094432;28;20481;-53
2022/12/31 04:30:39;;;;;;;1.23;1.00;;;;;;;11.44;100.00;100200.22;5094341;28;20040;-51
2022/12/31 04:33:07;;;;;;;1.02;1.00;;;;;;;11.43;100.00;100198.63;5094512;28;20055;-53
2022/12/31 04:35:34;;;;;;;0.80;0.80;;;;;;;11.42;100.00;100191.53;5094225;28;20048;-51
2022/12/31 04:38:02;;;;;;;0.90;0.90;;;;;;;11.43;100.00;100184.97;5094155;28;20045;-51
2022/12/31 04:40:30;;;;;;;0.90;0.90;;;;;;;11.43;100.00;100171.34;5093460;28;20044;-51
2022/12/31 04:42:57;;;;;;;0.95;0.95;;;;;;;11.43;100.00;100174.06;5094109;28;20052;-52
2022/12/31 04:45:25;;;;;;;3.58;1.10;;;;;;;11.44;100.00;100164.78;5075390;28;20047;-52
2022/12/31 04:47:52;;;;;;;1.25;1.00;;;;;;;11.45;100.00;100155.50;5093643;28;20039;-50
2022/12/31 04:50:20;;;;;;;0.70;0.70;;;;;;;11.45;100.00;100171.88;5093886;28;20051;-52
2022/12/31 04:52:48;;;;;;;0.80;0.80;;;;;;;11.46;100.00;100176.22;5093741;28;20067;-52
2022/12/31 04:55:15;;;;;;;0.70;0.70;;;;;;;11.44;100.00;100189.31;5087917;28;20658;-52
2022/12/31 04:57:44;;;;;;;0.80;0.80;;;;;;;11.44;100.00;100167.50;5094207;28;20036;-52
2022/12/31 05:00:13;;;;;;;1.10;0.80;;;;;;;11.45;100.00;100190.97;5093663;28;20123;-50
2022/12/31 05:02:40;;;;;;;3.70;0.95;;;;;;;11.46;100.00;100180.88;5093990;28;20082;-49
2022/12/31 05:05:08;;;;;;;0.77;0.70;;;;;;;11.45;100.00;100201.88;5093183;28;20078;-49
2022/12/31 05:07:36;;;;;;;0.82;0.82;;;;;;;11.46;100.00;100199.97;5093371;28;20062;-49
2022/12/31 05:10:04;;;;;;;0.88;0.88;;;;;;;11.46;100.00;100198.03;5093669;28;20044;-48
2022/12/31 05:12:32;;;;;;;0.80;0.80;;;;;;;11.46;100.00;100203.50;5093724;28;20050;-50
2022/12/31 05:15:00;;;;;;;1.45;1.20;;;;;;;11.47;100.00;100210.59;5093060;28;20044;-50
2022/12/31 05:17:27;;;;;;;1.20;1.13;;;;;;;11.48;100.00;100212.19;5093427;28;20039;-49
2022/12/31 05:19:55;;;;;;;0.90;0.90;;;;;;;11.47;100.00;100216.03;5093635;28;20085;-48
2022/12/31 05:22:28;;;;;;;0.85;0.85;;;;;;;11.49;100.00;100213.81;5093393;28;20036;-50
2022/12/31 05:24:57;;;;;;;0.80;0.80;;;;;;;11.51;100.00;100221.72;5093160;28;20064;-48
2022/12/31 05:27:25;;;;;;;0.85;0.85;;;;;;;11.52;100.00;100237.81;5093212;28;20518;-49
2022/12/31 05:29:53;;;;;;;0.80;0.80;;;;;;;11.54;100.00;100225.78;5075330;28;20040;-51
2022/12/31 05:32:21;;;;;;;0.77;0.77;;;;;;;11.54;100.00;100214.88;5093269;28;20037;-52
2022/12/31 05:34:48;;;;;;;1.05;1.05;;;;;;;11.54;100.00;100223.06;5092661;28;20426;-47
2022/12/31 05:37:16;;;;;;;1.23;1.13;;;;;;;11.53;100.00;100230.44;5075477;28;20089;-49
2022/12/31 05:39:43;;;;;;;0.90;0.90;;;;;;;11.53;100.00;100224.97;5093287;28;20097;-50
2022/12/31 05:42:11;;;;;;;0.90;0.90;;;;;;;11.54;100.00;100232.06;5093140;28;20071;-49
2022/12/31 05:44:39;;;;;;;1.25;1.08;;;;;;;11.54;100.00;100231.25;5092869;28;20040;-50
2022/12/31 05:47:06;;;;;;;1.42;1.35;;;;;;;11.55;100.00;100227.44;5092984;28;20036;-50
2022/12/31 05:49:34;;;;;;;1.95;1.73;;;;;;;11.57;100.00;100230.66;5092555;28;20063;-50
2022/12/31 05:52:01;;;;;;;1.63;1.50;;;;;;;11.55;100.00;100222.78;5094323;28;20036;-48
2022/12/31 05:54:29;;;;;;;1.58;1.48;;;;;;;11.55;100.00;100228.25;5091774;28;20036;-49
2022/12/31 05:56:57;;;;;;;1.10;1.00;;;;;;;11.56;100.00;100231.78;5091595;28;20044;-46
2022/12/31 05:59:24;;;;;;;1.20;1.10;;;;;;;11.59;100.00;100242.09;5092750;28;20044;-49
2022/12/31 06:01:52;;;;;;;1.48;1.33;;;;;;;11.61;100.00;100226.25;5091091;28;20101;-48
2022/12/31 06:04:20;;;;;;;1.70;1.55;;;;;;;11.64;100.00;100242.88;5084764;28;20036;-51
2022/12/31 06:06:48;;;;;;;1.23;1.13;;;;;;;11.69;100.00;100251.00;5092390;28;20059;-47
2022/12/31 06:09:16;;;;;;;2.25;1.40;;;;;;;11.77;100.00;100252.28;5089625;28;20074;-51
2022/12/31 06:11:45;;;;;;;3.25;1.70;;;;;;;11.82;100.00;100241.31;5091058;28;20064;-49
2022/12/31 06:14:13;;;;;;;3.80;1.60;;;;;;;11.82;100.00;100246.75;5092238;28;20040;-49
2022/12/31 06:16:42;;;;;;;1.85;1.50;;;;;;;11.81;100.00;100258.78;5092537;28;20048;-50
2022/12/31 06:19:09;;;;;;;3.08;1.35;;;;;;;11.85;100.00;100248.09;5090643;28;20502;-50
2022/12/31 06:21:37;;;;;;;1.60;1.50;;;;;;;11.86;100.00;100234.16;5092800;28;20059;-50
2022/12/31 06:24:05;;;;;;;2.50;1.38;;;;;;;11.88;100.00;100248.38;5091052;28;20039;-50
2022/12/31 06:26:32;;;;;;;1.40;1.20;;;;;;;11.92;100.00;100243.94;5094626;28;20113;-48
2022/12/31 06:29:00;;;;;;;3.33;1.88;;;;;;;11.97;100.00;100234.06;5095351;28;20046;-49
2022/12/31 06:31:28;;;;;;;3.65;1.65;;;;;;;12.04;100.00;100223.59;5096129;28;20131;-48
2022/12/31 06:33:55;;;;;;;3.65;1.65;;;;;;;12.12;100.00;100223.78;5095975;28;20048;-50
2022/12/31 06:36:23;;;;;;;2.85;1.02;;;;;;;12.20;100.00;100230.50;5076185;28;20040;-49
2022/12/31 06:38:51;;;;;;;3.55;1.23;;;;;;;12.27;100.00;100239.16;5087341;28;20043;-50
2022/12/31 06:41:18;;;;;;;8.40;2.60;;;;;;;12.33;100.00;100220.75;5083189;28;20055;-50
2022/12/31 06:43:46;;;;;;;13.85;5.13;;;;;;;12.37;100.00;100230.00;5093126;28;20048;-52
2022/12/31 06:46:16;;;;;;;15.57;4.50;;;;;;;12.43;100.00;100225.25;5094698;28;20042;-50
2022/12/31 06:48:44;;;;;;;4.32;1.40;;;;;;;12.51;100.00;100221.88;5093173;28;20131;-52
2022/12/31 06:51:14;;;;;;;2.53;1.25;;;;;;;12.52;100.00;100218.03;5092644;28;20048;-51
2022/12/31 06:53:45;;;;;;;5.57;1.45;;;;;;;12.57;100.00;100237.09;5094385;28;20051;-52
2022/12/31 06:56:16;;;;;;;2.08;1.15;;;;;;;12.62;100.00;100233.47;5078096;28;20040;-53
2022/12/31 06:58:44;;;;;;;2.55;1.10;;;;;;;12.70;100.00;100213.66;5094259;28;20039;-53
2022/12/31 07:01:24;;;;;;;11.55;3.42;;;;;;;12.79;100.00;100215.44;5095956;28;20051;-51
2022/12/31 07:04:13;;;;;;;6.32;2.38;;;;;;;12.89;100.00;100216.38;5095579;28;20090;-52
2022/12/31 07:07:00;;;;;;;12.27;3.90;;;;;;;13.00;100.00;100202.22;5094389;28;20040;-51
2022/12/31 07:09:50;;;;;;;18.40;4.75;;;;;;;13.09;100.00;100216.03;5094607;28;20451;-50
2022/12/31 07:12:26;;;;;;;17.17;4.97;;;;;;;13.16;100.00;100219.19;5111457;28;20044;-51
2022/12/31 07:14:59;;;;;;;36.42;10.50;;;;;;;13.19;100.00;100215.06;5095175;28;20040;-50
2022/12/31 07:17:39;;;;;;;32.33;6.70;;;;;;;13.29;100.00;100214.09;5089880;28;20040;-51
2022/12/31 07:20:15;;;;;;;14.13;4.65;;;;;;;13.44;100.00;100249.38;5092277;28;20047;-51
2022/12/31 07:22:43;;;;;;;4.40;1.90;;;;;;;13.44;100.00;100238.44;5094925;28;20036;-52
2022/12/31 07:25:15;;;;;;;5.53;1.77;;;;;;;13.34;100.00;100233.16;5085351;28;20045;-50
2022/12/31 07:27:58;;;;;;;25.17;7.05;;;;;;;13.28;100.00;100218.75;5092490;28;20047;-50
2022/12/31 07:30:49;;;;;;;7.57;2.58;;;;;;;13.22;100.00;100242.59;5095337;28;20047;-51
2022/12/31 07:33:32;;;;;;;5.18;1.50;;;;;;;13.20;100.00;100235.81;5095101;28;20536;-49
2022/12/31 07:36:19;;;;;;;12.38;3.53;;;;;;;13.22;100.00;100237.13;5094055;28;20040;-50
2022/12/31 07:39:09;;;;;;;16.10;3.63;;;;;;;13.29;100.00;100235.97;5092771;28;20059;-50
2022/12/31 07:41:51;;;;;;;59.10;15.82;;;;;;;13.38;100.00;100232.25;5094024;28;20035;-50
2022/12/31 07:44:36;;;;;;;34.63;9.20;;;;;;;13.46;100.00;100240.88;5094677;28;20084;-49
2022/12/31 07:47:18;;;;;;;37.13;9.68;;;;;;;13.57;100.00;100232.19;5099664;28;20047;-53
2022/12/31 07:49:46;;;;;;;18.73;5.18;;;;;;;13.64;100.00;100232.59;5076958;28;20048;-51
2022/12/31 07:52:14;;;;;;;26.30;6.45;;;;;;;13.60;100.00;100241.72;5093160;28;20046;-50
2022/12/31 07:54:41;;;;;;;25.63;7.53;;;;;;;13.55;100.00;100231.66;5093397;28;20115;-50
2022/12/31 07:57:11;;;;;;;35.88;10.40;;;;;;;13.77;100.00;100230.16;5095343;28;20040;-52
2022/12/31 08:00:06;;;;;;;25.70;8.30;;;;;;;13.97;100.00;100221.50;5076108;28;20055;-48
2022/12/31 08:03:03;;;;;;;29.20;8.60;;;;;;;14.03;100.00;100228.53;5093215;28;20047;-49
2022/12/31 08:06:03;;;;;;;26.17;7.05;;;;;;;14.14;100.00;100239.25;5094793;28;20119;-50
2022/12/31 08:08:34;;;;;;;33.10;8.65;;;;;;;14.11;100.00;100228.94;5088871;28;20051;-51
2022/12/31 08:11:10;;;;;;;32.97;10.02;;;;;;;13.98;100.00;100225.09;5094935;28;20044;-50
2022/12/31 08:13:40;;;;;;;39.40;10.30;;;;;;;14.01;100.00;100233.50;5094020;28;20040;-51
2022/12/31 08:16:11;;;;;;;14.95;4.22;;;;;;;14.10;100.00;100238.28;5092293;28;20051;-52
2022/12/31 08:18:39;;;;;;;27.98;8.35;;;;;;;14.13;100.00;100243.13;5094283;28;20043;-50
2022/12/31 08:21:31;;;;;;;8.48;2.50;;;;;;;14.07;100.00;100250.66;5094494;28;20512;-49
2022/12/31 08:24:23;;;;;;;7.95;2.58;;;;;;;14.03;100.00;100250.44;5092568;28;20498;-50
2022/12/31 08:27:03;;;;;;;15.90;5.05;;;;;;;14.19;100.00;100258.34;5073060;28;20036;-48
2022/12/31 08:29:49;;;;;;;6.75;2.63;;;;;;;14.09;100.00;100284.00;5092316;28;20055;-49
2022/12/31 08:32:21;;;;;;;7.00;1.85;;;;;;;13.82;100.00;100309.47;5092906;28;20044;-49
2022/12/31 08:34:48;;;;;;;4.85;1.70;;;;;;;13.70;100.00;100322.84;5094157;28;20410;-49
2022/12/31 08:37:50;;;;;;;7.20;1.95;;;;;;;13.64;100.00;100327.59;5093914;28;20402;-50
2022/12/31 08:40:32;;;;;;;2.47;1.48;;;;;;;13.63;100.00;100351.41;5098464;28;20047;-50
2022/12/31 08:43:46;;;;;;;5.85;2.25;;;;;;;13.62;100.00;100336.09;5092594;28;20044;-49
2022/12/31 08:46:27;;;;;;;6.53;1.70;;;;;;;13.66;100.00;100351.91;5092415;28;20040;-48
2022/12/31 08:48:54;;;;;;;6.68;2.00;;;;;;;13.70;100.00;100361.16;5091985;28;20070;-50
2022/12/31 08:51:24;;;;;;;16.52;3.75;;;;;;;13.73;100.00;100379.72;5093305;28;20493;-50
2022/12/31 08:53:54;;;;;;;4.97;1.58;;;;;;;13.76;100.00;100371.72;5093277;28;20071;-50
2022/12/31 08:56:33;;;;;;;7.13;2.92;;;;;;;13.75;100.00;100386.53;5093905;28;21742;-51
2022/12/31 08:59:24;;;;;;;12.73;3.75;;;;;;;13.73;100.00;100388.75;5093043;28;20438;-50
2022/12/31 09:02:06;;;;;;;5.65;1.95;;;;;;;13.81;100.00;100403.69;5092032;28;20064;-47
2022/12/31 09:04:52;;;;;;;8.38;2.53;;;;;;;13.79;100.00;100414.13;5094312;28;20101;-53
2022/12/31 09:07:35;;;;;;;8.32;2.95;;;;;;;13.78;100.00;100423.44;5094858;28;20044;-50
2022/12/31 09:10:31;;;;;;;7.15;2.55;;;;;;;13.75;100.00;100416.63;5094526;28;20055;-51
2022/12/31 09:13:05;;;;;;;14.07;4.38;;;;;;;13.79;100.00;100414.94;5086715;28;20054;-50
2022/12/31 09:15:42;;;;;;;6.10;2.45;;;;;;;13.84;100.00;100422.25;5093494;28;20044;-48
2022/12/31 09:18:11;;;;;;;4.07;1.95;;;;;;;13.86;100.00;100436.47;5079999;28;20054;-49
2022/12/31 09:20:39;;;;;;;11.90;3.45;;;;;;;13.82;100.00;100435.44;5093110;28;20088;-50
2022/12/31 09:23:11;;;;;;;8.85;2.05;;;;;;;13.80;100.00;100448.59;5092834;28;20040;-46
2022/12/31 09:25:55;;;;;;;7.90;2.90;;;;;;;13.78;100.00;100453.56;5091703;28;20063;-49
2022/12/31 09:28:43;;;;;;;22.25;6.63;;;;;;;13.81;100.00;100447.50;5092995;28;20052;-50
2022/12/31 09:31:15;;;;;;;7.43;2.88;;;;;;;13.81;100.00;100464.75;5090809;28;20047;-51
2022/12/31 09:33:47;;;;;;;6.15;2.20;;;;;;;13.80;100.00;100468.59;5083092;28;20051;-49
2022/12/31 09:36:21;;;;;;;7.00;2.72;;;;;;;13.81;100.00;100480.38;5093391;28;20486;-50
2022/12/31 09:38:53;;;;;;;5.90;2.22;;;;;;;13.83;100.00;100469.94;5092253;28;20058;-50
2022/12/31 09:41:46;;;;;;;8.95;3.15;;;;;;;13.82;100.00;100477.31;5091702;28;20048;-53
2022/12/31 09:44:50;;;;;;;4.20;1.70;;;;;;;13.79;100.00;100480.66;5086674;28;20067;-51
2022/12/31 09:47:36;;;;;;;5.33;2.30;;;;;;;13.72;100.00;100468.47;4376711;28;10000200;-49
2022/12/31 09:50:16;;;;;;;5.82;2.38;;;;;;;13.68;100.00;100467.41;5090027;28;20101;-50
2022/12/31 09:53:03;;;;;;;9.95;4.00;;;;;;;13.67;100.00;100494.00;5090020;28;20032;-50
2022/12/31 09:55:33;;;;;;;5.30;2.38;;;;;;;13.66;100.00;100491.53;5088546;28;20040;-51
2022/12/31 09:58:23;;;;;;;10.10;4.05;;;;;;;13.66;100.00;100497.00;5089721;28;20055;-51
2022/12/31 10:01:03;;;;;;;13.95;4.93;;;;;;;13.72;100.00;100490.38;5088906;28;20050;-50
2022/12/31 10:03:55;;;;;;;9.15;3.63;;;;;;;13.80;100.00;100481.47;5089458;28;20093;-50
2022/12/31 10:06:27;;;;;;;6.72;3.03;;;;;;;13.76;100.00;100486.75;5089705;28;20051;-50
2022/12/31 10:09:28;;;;;;;8.32;2.70;;;;;;;13.76;100.00;100499.63;5088768;28;20463;-51
2022/12/31 10:12:18;;;;;;;12.75;4.70;;;;;;;13.79;100.00;100493.53;5087330;28;20045;-50
2022/12/31 10:14:54;;;;;;;13.80;4.38;;;;;;;13.80;100.00;100504.19;5085376;28;20510;-52
2022/12/31 10:17:27;;;;;;;;;;;;;;;13.82;100.00;100499.22;5089566;28;20510;-53
2022/12/31 10:20:01;;;;;;;6.80;2.70;;;;;;;13.82;100.00;100490.19;5089684;28;19935;-50
2022/12/31 10:22:50;;;;;;;7.32;2.50;;;;;;;13.81;100.00;100494.06;5088877;28;20043;-50
2022/12/31 10:25:36;;;;;;;11.82;4.20;;;;;;;13.78;100.00;100506.44;5089667;28;20068;-51
2022/12/31 10:28:34;;;;;;;5.78;2.15;;;;;;;13.78;100.00;100492.72;5072930;28;20552;-51
2022/12/31 10:31:21;;;;;;;11.63;3.17;;;;;;;13.85;100.00;100484.13;5086741;28;20102;-50
2022/12/31 10:34:06;;;;;;;9.23;3.50;;;;;;;13.88;100.00;100472.59;5089423;28;20367;-50
2022/12/31 10:36:56;;;;;;;11.35;3.60;;;;;;;13.90;100.00;100470.34;5088509;28;20059;-50
2022/12/31 10:39:26;;;;;;;10.73;3.38;;;;;;;13.95;100.00;100473.03;5089390;28;20490;-53
2022/12/31 10:42:18;;;;;;;5.97;2.50;;;;;;;13.94;100.00;100468.63;5089188;28;20044;-51
2022/12/31 10:45:37;;;;;;;7.85;3.42;;;;;;;14.03;100.00;100455.88;5087378;28;20055;-51
2022/12/31 10:48:23;;;;;;;12.20;4.68;;;;;;;14.11;100.00;100473.56;5062002;28;20463;-52
2022/12/31 10:50:53;;;;;;;14.82;4.05;;;;;;;14.09;100.00;100461.28;5089218;28;20036;-51
2022/12/31 10:53:53;;;;;;;8.95;2.83;;;;;;;14.07;100.00;100459.66;5089396;28;20040;-51
2022/12/31 10:56:41;;;;;;;12.13;4.28;;;;;;;14.16;100.00;100475.41;5089137;28;20056;-52
2022/12/31 10:59:31;;;;;;;11.23;3.80;;;;;;;14.20;100.00;100476.44;5089127;28;20490;-51
2022/12/31 11:02:14;;;;;;;9.93;4.25;;;;;;;14.24;100.00;100480.22;5088520;28;20670;-51
2022/12/31 11:05:09;;;;;;;10.50;3.50;;;;;;;14.29;100.00;100471.91;5089260;28;20055;-50
2022/12/31 11:07:58;;;;;;;10.53;3.77;;;;;;;14.25;100.00;100476.34;5089063;28;20043;-50
2022/12/31 11:10:38;;;;;;;8.88;3.33;;;;;;;14.26;100.00;100487.00;5087722;28;20494;-51
2022/12/31 11:13:50;;;;;;;11.52;3.45;;;;;;;14.50;100.00;100475.06;5089843;28;20048;-51
2022/12/31 11:16:33;;;;;;;8.88;3.97;;;;;;;14.53;100.00;100485.44;5082088;28;20559;-52
2022/12/31 11:19:14;;;;;;;10.60;3.00;;;;;;;14.40;100.00;100478.78;5091103;28;20410;-52
2022/12/31 11:22:36;;;;;;;9.57;3.28;;;;;;;14.44;100.00;100493.53;5091720;28;20497;-52
2022/12/31 11:25:32;;;;;;;7.53;3.05;;;;;;;14.45;100.00;100486.91;5072644;28;20486;-50
2022/12/31 11:28:02;;;;;;;10.50;3.70;;;;;;;14.58;100.00;100479.06;5092172;28;20655;-52
2022/12/31 11:30:46;;;;;;;8.98;2.67;;;;;;;14.51;100.00;100484.91;5087784;28;20036;-52
2022/12/31 11:33:57;;;;;;;7.03;2.50;;;;;;;14.46;100.00;100488.56;5088953;28;20040;-49
2022/12/31 11:37:03;;;;;;;8.50;3.25;;;;;;;14.45;100.00;100489.66;5092141;28;20055;-49
2022/12/31 11:39:34;;;;;;;;;;;;;;;14.53;100.00;100479.94;5092762;28;20055;-50
2022/12/31 11:42:21;;;;;;;10.18;3.15;;;;;;;14.51;100.00;100486.84;5091714;28;20366;-51
2022/12/31 11:44:54;;;;;;;9.57;3.47;;;;;;;14.57;100.00;100496.63;5091798;28;20380;-52
2022/12/31 11:47:40;;;;;;;20.02;4.07;;;;;;;14.64;100.00;100505.25;5091426;28;20440;-54
2022/12/31 11:50:28;;;;;;;;;;;;;;;14.64;100.00;100503.31;5086622;28;20036;-50
2022/12/31 11:53:37;;;;;;;11.13;2.67;;;;;;;14.62;100.00;100496.53;5086613;28;19920;-49
2022/12/31 11:56:22;;;;;;;7.78;2.80;;;;;;;14.59;100.00;100502.63;5085846;28;20127;-52
2022/12/31 11:58:54;;;;;;;9.80;3.03;;;;;;;14.60;100.00;100491.38;5090938;28;20039;-54
2022/12/31 12:01:30;;;;;;;9.70;3.13;;;;;;;14.61;100.00;100498.47;5091372;28;20043;-51